createdAt,value
2022-08-29T00:01:14.581Z,3.53
2022-08-29T00:06:37.018Z,3.23
2022-08-29T00:11:59.428Z,3.40
2022-08-29T00:17:21.875Z,4.00
2022-08-29T00:22:45.055Z,3.10
2022-08-29T00:28:08.550Z,3.40
2022-08-29T00:33:30.906Z,3.30
2022-08-29T00:38:53.339Z,3.50
2022-08-29T00:44:16.916Z,3.10
2022-08-29T00:49:42.861Z,3.40
2022-08-29T00:55:12.405Z,3.60
2022-08-29T01:00:35.745Z,3.73
2022-08-29T01:05:59.468Z,3.30
2022-08-29T01:11:41.163Z,3.33
2022-08-29T01:17:05.211Z,4.10
2022-08-29T01:22:49.202Z,3.43
2022-08-29T01:28:28.792Z,3.10
2022-08-29T01:33:56.851Z,3.40
2022-08-29T01:39:22.235Z,3.13
2022-08-29T01:44:54.907Z,2.90
2022-08-29T01:50:19.614Z,3.63
2022-08-29T01:55:42.559Z,3.07
2022-08-29T02:01:06.105Z,3.70
2022-08-29T02:06:28.625Z,3.37
2022-08-29T02:11:51.661Z,3.67
2022-08-29T02:17:15.055Z,3.00
2022-08-29T02:22:39.083Z,3.70
2022-08-29T02:28:01.567Z,3.30
2022-08-29T02:33:24.771Z,3.87
2022-08-29T02:38:47.539Z,3.47
2022-08-29T02:44:09.787Z,3.60
2022-08-29T02:49:32.276Z,3.27
2022-08-29T02:54:54.742Z,3.67
2022-08-29T03:00:21.639Z,3.60
2022-08-29T03:05:44.074Z,3.47
2022-08-29T03:11:06.752Z,3.37
2022-08-29T03:16:29.279Z,3.37
2022-08-29T03:21:51.793Z,3.43
2022-08-29T03:27:14.399Z,3.60
2022-08-29T03:32:36.919Z,3.30
2022-08-29T03:37:59.767Z,3.53
2022-08-29T03:43:22.021Z,2.83
2022-08-29T03:48:44.474Z,3.53
2022-08-29T03:54:06.938Z,3.30
2022-08-29T03:59:29.262Z,3.43
2022-08-29T04:05:10.069Z,3.60
2022-08-29T04:10:35.252Z,3.67
2022-08-29T04:15:58.246Z,3.50
2022-08-29T04:21:20.812Z,3.83
2022-08-29T04:26:43.020Z,4.03
2022-08-29T04:32:05.491Z,3.83
2022-08-29T04:37:28.504Z,3.60
2022-08-29T04:42:50.921Z,3.70
2022-08-29T04:48:13.638Z,4.53
2022-08-29T04:53:36.019Z,4.30
2022-08-29T04:58:58.682Z,4.43
2022-08-29T05:04:21.152Z,4.07
2022-08-29T05:09:43.426Z,3.97
2022-08-29T05:15:07.307Z,4.30
2022-08-29T05:20:30.142Z,4.13
2022-08-29T05:25:57.286Z,4.77
2022-08-29T05:31:22.342Z,4.10
2022-08-29T05:36:45.345Z,4.43
2022-08-29T05:42:08.798Z,4.57
2022-08-29T05:47:32.278Z,4.53
2022-08-29T05:52:54.373Z,4.20
2022-08-29T05:58:16.858Z,3.97
2022-08-29T06:03:41.074Z,4.30
2022-08-29T06:09:07.211Z,4.50
2022-08-29T06:14:29.767Z,4.37
2022-08-29T06:19:52.629Z,4.83
2022-08-29T06:25:37.850Z,4.60
2022-08-29T06:31:05.610Z,4.53
2022-08-29T06:36:29.538Z,4.97
2022-08-29T06:41:51.973Z,5.20
2022-08-29T06:47:15.371Z,4.37
2022-08-29T06:52:37.888Z,4.67
2022-08-29T06:58:00.521Z,4.90
2022-08-29T07:03:23.270Z,4.87
2022-08-29T07:08:55.169Z,5.73
2022-08-29T07:14:19.078Z,5.33
2022-08-29T07:19:41.371Z,4.90
2022-08-29T07:25:04.388Z,5.17
2022-08-29T07:30:27.489Z,5.33
2022-08-29T07:35:49.742Z,5.60
2022-08-29T07:41:16.509Z,5.30
2022-08-29T07:46:39.012Z,5.80
2022-08-29T07:52:01.740Z,5.23
2022-08-29T07:57:24.390Z,5.10
2022-08-29T08:02:47.847Z,4.80
2022-08-29T08:08:15.516Z,5.20
2022-08-29T08:13:39.196Z,5.03
2022-08-29T08:19:01.753Z,5.17
2022-08-29T08:24:24.545Z,5.17
2022-08-29T08:29:46.851Z,4.90
2022-08-29T08:35:12.102Z,5.57
2022-08-29T08:40:42.176Z,4.53
2022-08-29T08:46:04.882Z,5.10
2022-08-29T08:51:33.456Z,5.45
2022-08-29T08:57:11.556Z,5.30
2022-08-29T09:02:36.992Z,4.90
2022-08-29T09:08:06.226Z,4.75
2022-08-29T09:13:46.822Z,5.35
2022-08-29T09:19:11.881Z,5.13
2022-08-29T09:24:44.536Z,5.00
2022-08-29T09:30:24.376Z,4.78
2022-08-29T09:35:52.755Z,5.53
2022-08-29T09:41:27.334Z,5.82
2022-08-29T09:47:27.366Z,4.68
2022-08-29T09:52:57.865Z,5.00
2022-08-29T09:58:20.439Z,5.30
2022-08-29T10:03:55.149Z,5.60
2022-08-29T10:09:28.203Z,4.35
2022-08-29T10:14:56.400Z,4.82
2022-08-29T10:20:21.100Z,4.53
2022-08-29T10:25:43.671Z,5.65
2022-08-29T10:31:35.505Z,5.10
2022-08-29T10:37:05.976Z,4.78
2022-08-29T10:42:33.755Z,4.75
2022-08-29T10:48:14.534Z,4.65
2022-08-29T10:53:42.325Z,4.55
2022-08-29T10:59:20.109Z,4.88
2022-08-29T11:04:50.727Z,4.90
2022-08-29T11:10:20.523Z,6.05
2022-08-29T11:15:58.512Z,4.50
2022-08-29T11:21:30.096Z,4.80
2022-08-29T11:27:19.850Z,4.82
2022-08-29T11:32:51.223Z,4.50
2022-08-29T11:38:51.593Z,4.60
2022-08-29T11:44:19.598Z,4.53
2022-08-29T11:49:49.053Z,4.60
2022-08-29T11:55:23.454Z,5.15
2022-08-29T12:00:52.819Z,5.25
2022-08-29T12:06:53.482Z,4.45
2022-08-29T12:12:35.856Z,4.38
2022-08-29T12:18:20.202Z,4.40
2022-08-29T12:23:45.501Z,4.20
2022-08-29T12:29:19.483Z,4.28
2022-08-29T12:35:20.396Z,4.03
2022-08-29T12:41:02.572Z,4.28
2022-08-29T12:46:37.185Z,3.83
2022-08-29T12:52:06.021Z,4.20
2022-08-29T12:57:38.622Z,4.00
2022-08-29T13:03:05.662Z,4.10
2022-08-29T13:08:37.618Z,3.97
2022-08-29T13:14:13.668Z,4.47
2022-08-29T13:19:36.027Z,4.68
2022-08-29T13:25:05.969Z,4.05
2022-08-29T13:30:28.483Z,4.15
2022-08-29T13:35:51.038Z,3.97
2022-08-29T13:41:29.008Z,3.50
2022-08-29T13:46:53.396Z,3.50
2022-08-29T13:52:19.091Z,3.95
2022-08-29T13:57:44.111Z,4.03
2022-08-29T14:03:09.416Z,3.78
2022-08-29T14:08:32.664Z,4.13
2022-08-29T14:13:55.402Z,3.70
2022-08-29T14:19:18.319Z,3.70
2022-08-29T14:24:41.367Z,4.10
2022-08-29T14:30:06.963Z,3.78
2022-08-29T14:35:31.577Z,4.00
2022-08-29T14:40:54.816Z,4.43
2022-08-29T14:46:17.448Z,3.60
2022-08-29T14:51:40.092Z,3.70
2022-08-29T14:57:02.355Z,3.63
2022-08-29T15:02:24.886Z,3.42
2022-08-29T15:07:47.630Z,3.70
2022-08-29T15:13:10.315Z,3.50
2022-08-29T15:19:14.814Z,3.10
2022-08-29T15:24:15.493Z,2.97
2022-08-29T15:29:42.803Z,3.40
2022-08-29T15:35:06.658Z,3.42
2022-08-29T15:40:33.622Z,2.95
2022-08-29T15:45:59.084Z,3.05
2022-08-29T15:51:22.192Z,2.63
2022-08-29T15:56:44.541Z,2.78
2022-08-29T16:02:10.424Z,2.72
2022-08-29T16:07:33.274Z,2.30
2022-08-29T16:12:56.508Z,2.13
2022-08-29T16:18:18.888Z,2.22
2022-08-29T16:23:41.212Z,1.75
2022-08-29T16:29:06.323Z,2.17
2022-08-29T16:34:29.566Z,1.92
2022-08-29T16:39:52.378Z,1.90
2022-08-29T16:45:15.554Z,1.80
2022-08-29T16:50:39.292Z,2.42
2022-08-29T16:56:03.449Z,1.98
2022-08-29T17:01:47.073Z,2.08
2022-08-29T17:07:09.727Z,2.10
2022-08-29T17:12:32.126Z,1.92
2022-08-29T17:17:54.696Z,1.88
2022-08-29T17:23:17.365Z,2.15
2022-08-29T17:28:40.655Z,1.90
2022-08-29T17:34:05.518Z,2.15
2022-08-29T17:39:28.114Z,1.90
2022-08-29T17:44:51.149Z,1.77
2022-08-29T17:50:14.029Z,2.00
2022-08-29T17:55:37.036Z,1.60
2022-08-29T18:00:59.392Z,1.83
2022-08-29T18:06:22.428Z,1.90
2022-08-29T18:11:49.441Z,1.67
2022-08-29T18:17:11.852Z,1.98
2022-08-29T18:22:34.404Z,2.05
2022-08-29T18:27:56.739Z,2.20
2022-08-29T18:33:19.704Z,1.90
2022-08-29T18:38:42.391Z,2.10
2022-08-29T18:44:06.037Z,2.25
2022-08-29T18:50:03.915Z,2.20
2022-08-29T18:55:27.414Z,3.70
2022-08-29T19:00:51.279Z,3.50
2022-08-29T19:06:14.035Z,2.63
2022-08-29T19:11:36.596Z,2.90
2022-08-29T19:17:00.754Z,2.97
2022-08-29T19:22:23.062Z,2.70
2022-08-29T19:27:46.749Z,2.47
2022-08-29T19:33:11.136Z,2.53
2022-08-29T19:38:34.347Z,2.72
2022-08-29T19:43:57.178Z,2.88
2022-08-29T19:49:23.540Z,4.30
2022-08-29T19:54:46.505Z,3.38
2022-08-29T20:00:14.006Z,3.15
2022-08-29T20:05:37.106Z,2.85
2022-08-29T20:10:59.631Z,3.28
2022-08-29T20:16:25.789Z,3.10
2022-08-29T20:21:49.428Z,2.60
2022-08-29T20:27:12.160Z,2.57
2022-08-29T20:32:35.163Z,2.70
2022-08-29T20:37:57.307Z,2.57
2022-08-29T20:43:19.974Z,2.70
2022-08-29T20:48:42.155Z,2.70
2022-08-29T20:54:06.578Z,2.60
2022-08-29T20:59:32.646Z,2.87
2022-08-29T21:05:15.392Z,2.50
2022-08-29T21:10:37.680Z,2.50
2022-08-29T21:16:01.004Z,2.60
2022-08-29T21:21:25.013Z,2.63
2022-08-29T21:26:48.505Z,2.50
2022-08-29T21:32:11.116Z,2.70
2022-08-29T21:37:33.854Z,2.30
2022-08-29T21:42:56.368Z,2.93
2022-08-29T21:48:18.996Z,2.37
2022-08-29T21:53:41.789Z,2.43
2022-08-29T21:59:05.672Z,2.70
2022-08-29T22:04:29.361Z,2.60
2022-08-29T22:09:53.697Z,2.50
2022-08-29T22:15:35.376Z,2.63
2022-08-29T22:20:58.395Z,2.40
2022-08-29T22:26:20.876Z,2.70
2022-08-29T22:31:44.748Z,2.60
2022-08-29T22:37:07.173Z,2.67
2022-08-29T22:42:29.470Z,2.63
2022-08-29T22:47:51.951Z,2.43
2022-08-29T22:53:14.505Z,2.60
2022-08-29T22:58:37.012Z,2.70
2022-08-29T23:04:00.046Z,2.43
2022-08-29T23:09:22.804Z,2.70
2022-08-29T23:14:46.713Z,2.30
2022-08-29T23:20:11.924Z,2.30
2022-08-29T23:25:35.508Z,2.30
2022-08-29T23:30:58.960Z,2.70
2022-08-29T23:36:22.313Z,2.43
2022-08-29T23:41:44.711Z,2.63
2022-08-29T23:47:08.468Z,2.43
2022-08-29T23:52:31.052Z,2.67
2022-08-29T23:57:53.576Z,2.60
